Olivia Sylvie — FMIF — position and weather

sailwx.info

Track history (hours):
 
Tides and Currents Weather Stations Pressure Air Temp Water Temp Dewpoint Dewpoint Depression Visibility Wind Speed Wind Dir Waves Ship Positions

Olivia Sylvie

Last reported at 2014-Aug-21 05:32 UTC. Time now 2014-Aug-21 06:24 UTC.
Position N 43°16' E 004°48'.

Length 23 m.

Type: Fishing. MMSI: 228236800.

Date/timePositionNaut miles runAvg speedWind from/ knotsBaromVisibWave heightAir tempDewpointWater temp
2014-Aug-21 05:32N 43°16' E 004°48'3 2.5
2014-Aug-21 04:29N 43°17' E 004°45'4 4.0
2014-Aug-21 03:33N 43°18' E 004°50'4 4.2
2014-Aug-21 02:33N 43°19' E 004°55'6 0.6
2014-Aug-20 16:21N 43°24' E 004°60'0 0.0
2014-Aug-20 15:33N 43°24' E 004°60'0 0.0
2014-Aug-20 14:33N 43°24' E 004°60'4 4.1
2014-Aug-20 13:33N 43°20' E 005°01'4 4.1
2014-Aug-20 12:33N 43°16' E 005°02'4 4.0
2014-Aug-20 11:31N 43°15' E 004°57'4 3.8
2014-Aug-20 10:33N 43°12' E 004°53'4 3.7
2014-Aug-20 09:33N 43°11' E 004°49'4 3.8
2014-Aug-20 08:23N 43°09' E 004°55'3 1.4
2014-Aug-20 06:32N 43°09' E 004°51'4 3.2
2014-Aug-20 05:12N 43°11' E 004°46'3 4.3
2014-Aug-20 04:30N 43°13' E 004°48'4 4.1
2014-Aug-20 03:33N 43°16' E 004°51'4 4.0
2014-Aug-20 02:33N 43°18' E 004°56'7 6.9
2014-Aug-20 01:34N 43°24' E 004°60'0 0.0
2014-Aug-20 00:33N 43°24' E 004°60'0 0.0
2014-Aug-19 23:33N 43°24' E 004°60'0 0.0
2014-Aug-19 22:33N 43°24' E 004°60'0 0.0
2014-Aug-19 21:33N 43°24' E 004°60'0 0.0
2014-Aug-19 20:33N 43°24' E 004°60'0 0.0
2014-Aug-19 19:33N 43°24' E 004°60'0 0.0
2014-Aug-19 18:33N 43°24' E 004°60'0 0.0
2014-Aug-19 17:33N 43°24' E 004°60'0 0.0
2014-Aug-19 16:33N 43°24' E 004°60'0 0.0
2014-Aug-19 15:33N 43°24' E 004°60'0 0.4
2014-Aug-19 14:33N 43°24' E 004°59'2 2.3
2014-Aug-19 13:33N 43°22' E 004°59'6 6.1
2014-Aug-19 12:33N 43°16' E 005°00'4 3.9
2014-Aug-19 11:30N 43°13' E 004°56'4 1.9
2014-Aug-19 09:14N 43°10' E 004°52'5 4.0
2014-Aug-19 08:03N 43°10' E 004°59'0 0.4
2014-Aug-19 07:32N 43°10' E 004°59'8 3.8
2014-Aug-19 05:24N 43°13' E 004°49'3 3.2
2014-Aug-19 04:24N 43°16' E 004°50'4 3.9
2014-Aug-19 03:17N 43°17' E 004°55'5 6.9
2014-Aug-19 02:33N 43°22' E 004°58'3 0.2
2014-Aug-18 16:06N 43°24' E 004°60'0 0.0
2014-Aug-18 15:33N 43°24' E 004°60'0 0.0
2014-Aug-18 14:33N 43°24' E 004°60'3 3.4
2014-Aug-18 13:33N 43°21' E 005°00'5 4.9
2014-Aug-18 12:33N 43°16' E 005°01'4 4.0
2014-Aug-18 11:31N 43°14' E 004°56'5 3.8
2014-Aug-18 10:16N 43°12' E 004°50'6 2.9
2014-Aug-18 08:04N 43°10' E 004°58'3 1.7
2014-Aug-18 06:11N 43°09' E 004°54'6 3.9
2014-Aug-18 04:33N 43°13' E 004°46'4 4.1
2014-Aug-18 03:29N 43°16' E 004°51'4 3.8
2014-Aug-18 02:31N 43°17' E 004°55'7 7.7
2014-Aug-18 01:33N 43°24' E 004°59'0 0.3
2014-Aug-18 00:33N 43°24' E 004°60'0 0.0
2014-Aug-17 18:33N 43°24' E 004°60'0 0.0
2014-Aug-17 17:33N 43°24' E 004°60'0 0.0
2014-Aug-17 16:33N 43°24' E 004°60'0 0.0
2014-Aug-17 15:33N 43°24' E 004°60'0 0.0
2014-Aug-17 14:33N 43°24' E 004°60'0 0.0
2014-Aug-17 13:33N 43°24' E 004°60'0 0.0
2014-Aug-17 12:33N 43°24' E 004°60'0 0.0
2014-Aug-17 11:33N 43°24' E 004°60'0 0.0
2014-Aug-17 10:33N 43°24' E 004°60'0 0.0
2014-Aug-17 09:33N 43°24' E 004°60'0 0.0
2014-Aug-17 08:33N 43°24' E 004°60'0 0.0
2014-Aug-17 07:33N 43°24' E 004°60'  
2014-Aug-14 15:33N 43°24' E 004°60'0 0.0
2014-Aug-14 14:33N 43°24' E 004°60'0 0.0
2014-Aug-14 13:33N 43°24' E 004°60'3 2.7
2014-Aug-14 12:33N 43°22' E 004°58'3 3.4
2014-Aug-14 11:33N 43°20' E 004°54'4 3.9
2014-Aug-14 10:33N 43°18' E 004°49'1 1.0
2014-Aug-14 09:05N 43°17' E 004°49'2 4.0
2014-Aug-14 08:33N 43°17' E 004°52'2 2.0
2014-Aug-14 07:33N 43°17' E 004°54'3 3.4
2014-Aug-14 06:33N 43°17' E 004°50'5 4.0
2014-Aug-14 05:21N 43°15' E 004°44'4 3.2
2014-Aug-14 04:04N 43°18' E 004°48'2 4.1
2014-Aug-14 03:33N 43°18' E 004°51'3 3.5
2014-Aug-14 02:33N 43°19' E 004°56'6 5.7
2014-Aug-14 01:33N 43°24' E 004°60'0 0.0
2014-Aug-13 15:33N 43°24' E 004°60'0 0.0
2014-Aug-13 14:33N 43°24' E 004°60'0 0.0
2014-Aug-13 13:33N 43°24' E 004°60'8 7.7
2014-Aug-13 12:33N 43°18' E 004°53'2 2.4
2014-Aug-13 11:33N 43°17' E 004°50'3 1.1
2014-Aug-13 08:27N 43°15' E 004°53'2 1.9
2014-Aug-13 07:33N 43°16' E 004°55'6 2.0
2014-Aug-13 04:18N 43°18' E 004°47'3 4.2
2014-Aug-13 03:32N 43°18' E 004°51'5 4.8
2014-Aug-13 02:33N 43°21' E 004°56'4 0.4
2014-Aug-12 16:33N 43°24' E 004°60'0 0.0
2014-Aug-12 15:33N 43°24' E 004°60'0 0.0
2014-Aug-12 14:33N 43°24' E 004°60'3 3.2
2014-Aug-12 13:33N 43°21' E 004°59'4 4.3
2014-Aug-12 12:33N 43°17' E 004°58'4 4.0
2014-Aug-12 11:33N 43°16' E 004°53'4 4.0
2014-Aug-12 10:33N 43°15' E 004°48'4 3.5
2014-Aug-12 09:22N 43°15' E 004°53'3 4.0
2014-Aug-12 08:30N 43°16' E 004°58'2 1.7
2014-Aug-12 07:33N 43°17' E 004°60'4 3.9
2014-Aug-12 06:33N 43°17' E 004°54'4 4.0
2014-Aug-12 05:32N 43°16' E 004°49'2 2.5
2014-Aug-12 04:33N 43°18' E 004°46'4 4.1
2014-Aug-12 03:33N 43°18' E 004°52'6 5.8
2014-Aug-12 02:33N 43°22' E 004°58'2 2.4
2014-Aug-12 01:33N 43°24' E 004°60'0 0.0
2014-Aug-11 16:23N 43°24' E 004°60'0 0.2
2014-Aug-11 15:33N 43°24' E 004°59'0 0.0
2014-Aug-11 14:34N 43°24' E 004°59'4 4.3
2014-Aug-11 13:34N 43°21' E 004°56'6 5.7
2014-Aug-11 12:33N 43°16' E 004°51'3 3.4
2014-Aug-11 11:33N 43°15' E 004°47'4 1.9
2014-Aug-11 09:27N 43°11' E 004°50'3 1.7
2014-Aug-11 07:33N 43°12' E 004°55'3 3.3
2014-Aug-11 06:32N 43°12' E 004°50'  
Track history (hours):
 
Tides and Currents Weather Stations Pressure Air Temp Water Temp Dewpoint Dewpoint Depression Visibility Wind Speed Wind Dir Waves Ship Positions

Olivia Sylvie

Last reported at 2014-Aug-21 05:32 UTC. Time now 2014-Aug-21 06:24 UTC.
Position N 43°16' E 004°48'.

Length 23 m.

Type: Fishing. MMSI: 228236800.

Date/timePositionNaut miles runAvg speedWind from/ knotsBaromVisibWave heightAir tempDewpointWater temp
2014-Aug-21 05:32N 43°16' E 004°48'3 2.5
2014-Aug-21 04:29N 43°17' E 004°45'4 4.0
2014-Aug-21 03:33N 43°18' E 004°50'4 4.2
2014-Aug-21 02:33N 43°19' E 004°55'6 0.6
2014-Aug-20 16:21N 43°24' E 004°60'0 0.0
2014-Aug-20 15:33N 43°24' E 004°60'0 0.0
2014-Aug-20 14:33N 43°24' E 004°60'4 4.1
2014-Aug-20 13:33N 43°20' E 005°01'4 4.1
2014-Aug-20 12:33N 43°16' E 005°02'4 4.0
2014-Aug-20 11:31N 43°15' E 004°57'4 3.8
2014-Aug-20 10:33N 43°12' E 004°53'4 3.7
2014-Aug-20 09:33N 43°11' E 004°49'4 3.8
2014-Aug-20 08:23N 43°09' E 004°55'3 1.4
2014-Aug-20 06:32N 43°09' E 004°51'4 3.2
2014-Aug-20 05:12N 43°11' E 004°46'3 4.3
2014-Aug-20 04:30N 43°13' E 004°48'4 4.1
2014-Aug-20 03:33N 43°16' E 004°51'4 4.0
2014-Aug-20 02:33N 43°18' E 004°56'7 6.9
2014-Aug-20 01:34N 43°24' E 004°60'0 0.0
2014-Aug-20 00:33N 43°24' E 004°60'0 0.0
2014-Aug-19 23:33N 43°24' E 004°60'0 0.0
2014-Aug-19 22:33N 43°24' E 004°60'0 0.0
2014-Aug-19 21:33N 43°24' E 004°60'0 0.0
2014-Aug-19 20:33N 43°24' E 004°60'0 0.0
2014-Aug-19 19:33N 43°24' E 004°60'0 0.0
2014-Aug-19 18:33N 43°24' E 004°60'0 0.0
2014-Aug-19 17:33N 43°24' E 004°60'0 0.0
2014-Aug-19 16:33N 43°24' E 004°60'0 0.0
2014-Aug-19 15:33N 43°24' E 004°60'0 0.4
2014-Aug-19 14:33N 43°24' E 004°59'2 2.3
2014-Aug-19 13:33N 43°22' E 004°59'6 6.1
2014-Aug-19 12:33N 43°16' E 005°00'4 3.9
2014-Aug-19 11:30N 43°13' E 004°56'4 1.9
2014-Aug-19 09:14N 43°10' E 004°52'5 4.0
2014-Aug-19 08:03N 43°10' E 004°59'0 0.4
2014-Aug-19 07:32N 43°10' E 004°59'8 3.8
2014-Aug-19 05:24N 43°13' E 004°49'3 3.2
2014-Aug-19 04:24N 43°16' E 004°50'4 3.9
2014-Aug-19 03:17N 43°17' E 004°55'5 6.9
2014-Aug-19 02:33N 43°22' E 004°58'3 0.2
2014-Aug-18 16:06N 43°24' E 004°60'0 0.0
2014-Aug-18 15:33N 43°24' E 004°60'0 0.0
2014-Aug-18 14:33N 43°24' E 004°60'3 3.4
2014-Aug-18 13:33N 43°21' E 005°00'5 4.9
2014-Aug-18 12:33N 43°16' E 005°01'4 4.0
2014-Aug-18 11:31N 43°14' E 004°56'5 3.8
2014-Aug-18 10:16N 43°12' E 004°50'6 2.9
2014-Aug-18 08:04N 43°10' E 004°58'3 1.7
2014-Aug-18 06:11N 43°09' E 004°54'6 3.9
2014-Aug-18 04:33N 43°13' E 004°46'4 4.1
2014-Aug-18 03:29N 43°16' E 004°51'4 3.8
2014-Aug-18 02:31N 43°17' E 004°55'7 7.7
2014-Aug-18 01:33N 43°24' E 004°59'0 0.3
2014-Aug-18 00:33N 43°24' E 004°60'0 0.0
2014-Aug-17 18:33N 43°24' E 004°60'0 0.0
2014-Aug-17 17:33N 43°24' E 004°60'0 0.0
2014-Aug-17 16:33N 43°24' E 004°60'0 0.0
2014-Aug-17 15:33N 43°24' E 004°60'0 0.0
2014-Aug-17 14:33N 43°24' E 004°60'0 0.0
2014-Aug-17 13:33N 43°24' E 004°60'0 0.0
2014-Aug-17 12:33N 43°24' E 004°60'0 0.0
2014-Aug-17 11:33N 43°24' E 004°60'0 0.0
2014-Aug-17 10:33N 43°24' E 004°60'0 0.0
2014-Aug-17 09:33N 43°24' E 004°60'0 0.0
2014-Aug-17 08:33N 43°24' E 004°60'0 0.0
2014-Aug-17 07:33N 43°24' E 004°60'  
2014-Aug-14 15:33N 43°24' E 004°60'0 0.0
2014-Aug-14 14:33N 43°24' E 004°60'0 0.0
2014-Aug-14 13:33N 43°24' E 004°60'3 2.7
2014-Aug-14 12:33N 43°22' E 004°58'3 3.4
2014-Aug-14 11:33N 43°20' E 004°54'4 3.9
2014-Aug-14 10:33N 43°18' E 004°49'1 1.0
2014-Aug-14 09:05N 43°17' E 004°49'2 4.0
2014-Aug-14 08:33N 43°17' E 004°52'2 2.0
2014-Aug-14 07:33N 43°17' E 004°54'3 3.4
2014-Aug-14 06:33N 43°17' E 004°50'5 4.0
2014-Aug-14 05:21N 43°15' E 004°44'4 3.2
2014-Aug-14 04:04N 43°18' E 004°48'2 4.1
2014-Aug-14 03:33N 43°18' E 004°51'3 3.5
2014-Aug-14 02:33N 43°19' E 004°56'6 5.7
2014-Aug-14 01:33N 43°24' E 004°60'0 0.0
2014-Aug-13 15:33N 43°24' E 004°60'0 0.0
2014-Aug-13 14:33N 43°24' E 004°60'0 0.0
2014-Aug-13 13:33N 43°24' E 004°60'8 7.7
2014-Aug-13 12:33N 43°18' E 004°53'2 2.4
2014-Aug-13 11:33N 43°17' E 004°50'3 1.1
2014-Aug-13 08:27N 43°15' E 004°53'2 1.9
2014-Aug-13 07:33N 43°16' E 004°55'6 2.0
2014-Aug-13 04:18N 43°18' E 004°47'3 4.2
2014-Aug-13 03:32N 43°18' E 004°51'5 4.8
2014-Aug-13 02:33N 43°21' E 004°56'4 0.4
2014-Aug-12 16:33N 43°24' E 004°60'0 0.0
2014-Aug-12 15:33N 43°24' E 004°60'0 0.0
2014-Aug-12 14:33N 43°24' E 004°60'3 3.2
2014-Aug-12 13:33N 43°21' E 004°59'4 4.3
2014-Aug-12 12:33N 43°17' E 004°58'4 4.0
2014-Aug-12 11:33N 43°16' E 004°53'4 4.0
2014-Aug-12 10:33N 43°15' E 004°48'4 3.5
2014-Aug-12 09:22N 43°15' E 004°53'3 4.0
2014-Aug-12 08:30N 43°16' E 004°58'2 1.7
2014-Aug-12 07:33N 43°17' E 004°60'4 3.9
2014-Aug-12 06:33N 43°17' E 004°54'4 4.0
2014-Aug-12 05:32N 43°16' E 004°49'2 2.5
2014-Aug-12 04:33N 43°18' E 004°46'4 4.1
2014-Aug-12 03:33N 43°18' E 004°52'6 5.8
2014-Aug-12 02:33N 43°22' E 004°58'2 2.4
2014-Aug-12 01:33N 43°24' E 004°60'0 0.0
2014-Aug-11 16:23N 43°24' E 004°60'0 0.2
2014-Aug-11 15:33N 43°24' E 004°59'0 0.0
2014-Aug-11 14:34N 43°24' E 004°59'4 4.3
2014-Aug-11 13:34N 43°21' E 004°56'6 5.7
2014-Aug-11 12:33N 43°16' E 004°51'3 3.4
2014-Aug-11 11:33N 43°15' E 004°47'4 1.9
2014-Aug-11 09:27N 43°11' E 004°50'3 1.7
2014-Aug-11 07:33N 43°12' E 004°55'3 3.3
2014-Aug-11 06:32N 43°12' E 004°50'  

Dump ship's entire track history